Time;durP1;ratioP1;P1;durP2;ratioP2;P2;SDS_P1;SDS_P2;PMS_P1;PMS_P2;Temp;Humidity;BMP_temperature;BMP_pressure;BME280_temperature;BME280_humidity;BME280_pressure;Samples;Min_cycle;Max_cycle;Signal;HPM_P1;HPM_P2
2024/04/22 00:01:29;;;;;;;;;;;;;;;3.89;52.75;102008.53;4431518;26;19936;-82
2024/04/22 00:03:49;;;;;;;;;;;;;;;3.87;53.04;102007.75;4398529;26;19996;-81
2024/04/22 00:06:15;;;;;;;;;;;;;;;3.83;53.30;102007.09;4398898;26;20034;-82
2024/04/22 00:08:35;;;;;;;;;;;;;;;3.82;53.12;102015.22;4424177;26;19937;-81
2024/04/22 00:11:03;;;;;;;;;;;;;;;3.77;53.09;102011.03;4421625;26;19997;-85
2024/04/22 00:13:23;;;;;;;;;;;;;;;3.72;53.49;102013.16;4400728;26;20031;-81
2024/04/22 00:15:45;;;;;;;;;;;;;;;3.70;53.48;102012.41;4423054;26;20380;-85
2024/04/22 00:18:05;;;;;;;;;;;;;;;3.66;53.40;102008.22;4423153;26;19936;-81
2024/04/22 00:20:29;;;;;;;;;;;;;;;3.63;53.98;102007.56;4424098;26;19937;-82
2024/04/22 00:22:52;;;;;;;;;;;;;;;3.59;53.89;102006.91;4411907;26;20260;-81
2024/04/22 00:25:14;;;;;;;;;;;;;;;3.58;54.11;102006.03;4398505;26;19942;-89
2024/04/22 00:27:33;;;;;;;;;;;;;;;3.53;54.55;102005.50;4392793;26;19977;-81
2024/04/22 00:29:56;;;;;;;;;;;;;;;3.52;54.62;102003.75;4383191;26;20317;-81
2024/04/22 00:32:16;;;;;;;;;;;;;;;3.50;54.89;101997.69;4423535;26;20001;-81
2024/04/22 00:34:39;;;;;;;;;;;;;;;3.47;54.67;101995.19;4423321;26;19966;-80
2024/04/22 00:36:58;;;;;;;;;;;;;;;3.43;54.81;101997.22;4423716;26;19980;-83
2024/04/22 00:39:24;;;;;;;;;;;;;;;3.39;55.39;101998.38;4405893;26;20684;-83
2024/04/22 00:41:44;;;;;;;;;;;;;;;3.36;55.17;101992.38;4417496;26;20020;-81
2024/04/22 00:44:06;;;;;;;;;;;;;;;3.33;55.68;102001.44;4420978;26;20304;-81
2024/04/22 00:46:26;;;;;;;;;;;;;;;3.32;55.70;102006.88;4421354;26;19937;-81
2024/04/22 00:48:49;;;;;;;;;;;;;;;3.28;55.77;102006.22;4423081;26;19937;-81
2024/04/22 00:51:08;;;;;;;;;;;;;;;3.25;56.11;102001.09;4424295;26;19937;-81
2024/04/22 00:53:31;;;;;;;;;;;;;;;3.25;56.57;102006.41;4423822;26;19937;-81
2024/04/22 00:55:53;;;;;;;;;;;;;;;3.24;56.74;102000.22;4397604;26;19938;-81
2024/04/22 00:58:15;;;;;;;;;;;;;;;3.23;57.00;102003.00;4430078;26;19958;-81
2024/04/22 01:00:36;;;;;;;;;;;;;;;3.23;57.02;102005.66;4423519;26;19937;-81
2024/04/22 01:02:58;;;;;;;;;;;;;;;3.23;57.16;101998.50;4423528;26;20069;-81
2024/04/22 01:05:18;;;;;;;;;;;;;;;3.24;57.55;102005.56;4422190;26;20003;-81
2024/04/22 01:07:41;;;;;;;;;;;;;;;3.25;57.73;101998.41;4403162;26;20289;-81
2024/04/22 01:10:01;;;;;;;;;;;;;;;3.25;57.45;102001.09;4393944;26;19945;-81
2024/04/22 01:12:26;;;;;;;;;;;;;;;3.24;57.53;101999.34;4412256;26;19972;-84
2024/04/22 01:14:46;;;;;;;;;;;;;;;3.22;57.88;102003.94;4423482;26;19976;-81
2024/04/22 01:17:09;;;;;;;;;;;;;;;3.21;58.19;102003.09;4422824;26;20383;-82
2024/04/22 01:19:28;;;;;;;;;;;;;;;3.18;58.25;102005.09;4424781;26;19999;-81
2024/04/22 01:22:19;;;;;;;;;;;;;;;3.12;58.15;102001.00;4391726;27;19937;-82
2024/04/22 01:24:39;;;;;;;;;;;;;;;3.09;58.78;102000.31;4368286;27;19981;-82
2024/04/22 01:27:02;;;;;;;;;;;;;;;3.05;58.94;102000.53;4386343;27;19937;-83
2024/04/22 01:29:22;;;;;;;;;;;;;;;3.03;59.12;102002.44;4390039;27;19963;-83
2024/04/22 01:31:44;;;;;;;;;;;;;;;3.00;59.25;102001.78;4397333;27;19937;-83
2024/04/22 01:34:04;;;;;;;;;;;;;;;2.99;59.37;101992.91;4348372;27;19995;-81
2024/04/22 01:36:27;;;;;;;;;;;;;;;2.96;59.61;101993.13;4392054;27;20008;-82
2024/04/22 01:38:50;;;;;;;;;;;;;;;2.92;59.46;101994.25;4393090;27;19937;-81
2024/04/22 01:41:12;;;;;;;;;;;;;;;2.89;59.89;101994.44;4390514;27;19937;-81
2024/04/22 01:43:32;;;;;;;;;;;;;;;2.87;59.83;101988.38;4400694;26;20391;-81
2024/04/22 01:45:55;;;;;;;;;;;;;;;2.83;60.17;101987.66;4395738;27;20001;-82
2024/04/22 01:48:15;;;;;;;;;;;;;;;2.81;60.74;101989.59;4391532;27;19937;-81
2024/04/22 01:50:39;;;;;;;;;;;;;;;2.78;60.91;101987.13;4394715;27;20001;-83
2024/04/22 01:52:59;;;;;;;;;;;;;;;2.76;61.11;101986.38;4397933;26;19967;-81
2024/04/22 01:55:25;;;;;;;;;;;;;;;2.76;61.04;101985.47;4402437;26;19978;-81
2024/04/22 01:57:44;;;;;;;;;;;;;;;2.73;61.60;101983.88;4395553;27;20000;-80
2024/04/22 02:00:08;;;;;;;;;;;;;;;2.69;61.51;101985.00;4372861;27;19998;-81
2024/04/22 02:02:35;;;;;;;;;;;;;;;2.66;61.66;101986.06;4397251;27;19959;-82
2024/04/22 02:04:57;;;;;;;;;;;;;;;2.63;62.22;101975.59;4397593;27;20000;-82
2024/04/22 02:07:17;;;;;;;;;;;;;;;2.61;62.20;101977.47;4406627;26;19974;-82
2024/04/22 02:09:39;;;;;;;;;;;;;;;2.58;62.39;101979.50;4415245;26;20003;-82
2024/04/22 02:12:01;;;;;;;;;;;;;;;2.55;62.94;101980.53;4395328;27;20061;-82
2024/04/22 02:14:24;;;;;;;;;;;;;;;2.52;63.13;101981.59;4396411;27;19942;-88
2024/04/22 02:16:46;;;;;;;;;;;;;;;2.48;62.92;101982.72;4395988;27;20009;-82
2024/04/22 02:19:09;;;;;;;;;;;;;;;2.44;63.53;101986.50;4393501;27;19977;-83
2024/04/22 02:21:35;;;;;;;;;;;;;;;2.44;63.78;101996.34;4421858;26;19937;-82
2024/04/22 02:23:58;;;;;;;;;;;;;;;2.44;63.57;101988.34;4425754;26;20328;-86
2024/04/22 02:26:18;;;;;;;;;;;;;;;2.43;63.59;101991.94;4422262;26;20193;-84
2024/04/22 02:28:44;;;;;;;;;;;;;;;2.42;63.65;101999.09;4395071;26;20448;-83
2024/04/22 02:31:04;;;;;;;;;;;;;;;2.42;63.91;101996.44;4424237;26;19941;-83
2024/04/22 02:33:27;;;;;;;;;;;;;;;2.41;63.87;101993.84;4376097;26;20339;-81
2024/04/22 02:35:47;;;;;;;;;;;;;;;2.39;63.91;101983.28;4422236;26;20000;-82
2024/04/22 02:38:09;;;;;;;;;;;;;;;2.38;63.58;101988.69;4388685;27;20389;-82
2024/04/22 02:40:29;;;;;;;;;;;;;;;2.34;64.09;101990.72;4377989;26;20305;-82
2024/04/22 02:42:52;;;;;;;;;;;;;;;2.31;64.15;101985.56;4425145;26;20004;-81
2024/04/22 02:45:14;;;;;;;;;;;;;;;2.27;64.66;101986.69;4425379;26;19937;-81
2024/04/22 02:47:37;;;;;;;;;;;;;;;2.24;64.83;101987.75;4423356;26;19937;-81
2024/04/22 02:49:57;;;;;;;;;;;;;;;2.23;65.00;101990.50;4417431;26;19941;-82
2024/04/22 02:52:20;;;;;;;;;;;;;;;2.19;65.30;101984.47;4395340;26;20380;-81
2024/04/22 02:54:40;;;;;;;;;;;;;;;2.17;65.24;101976.56;4424192;26;19981;-84
2024/04/22 02:57:02;;;;;;;;;;;;;;;2.17;65.39;101986.38;4425206;26;20000;-82
2024/04/22 02:59:22;;;;;;;;;;;;;;;2.15;65.58;101973.16;4399839;26;19943;-83
2024/04/22 03:01:58;;;;;;;;;;;;;;;2.14;65.63;101976.75;4424704;26;19946;-84
2024/04/22 03:04:18;;;;;;;;;;;;;;;2.15;65.44;101972.31;4417758;26;19937;-82
2024/04/22 03:06:40;;;;;;;;;;;;;;;2.15;66.00;101966.97;4391533;26;20000;-83
2024/04/22 03:09:01;;;;;;;;;;;;;;;2.13;66.14;101969.72;4409762;26;19937;-81
2024/04/22 03:11:23;;;;;;;;;;;;;;;2.13;66.04;101975.06;4390624;26;20001;-81
2024/04/22 03:13:44;;;;;;;;;;;;;;;2.12;66.46;101980.47;4406739;26;20004;-82
2024/04/22 03:16:07;;;;;;;;;;;;;;;2.10;66.61;101977.91;4425271;26;19937;-82
2024/04/22 03:18:30;;;;;;;;;;;;;;;2.06;66.89;101973.69;4399441;26;20000;-82
2024/04/22 03:20:52;;;;;;;;;;;;;;;2.07;66.94;101970.09;4410747;26;20303;-82
2024/04/22 03:23:12;;;;;;;;;;;;;;;2.06;67.29;101970.19;4404665;26;20347;-86
2024/04/22 03:25:35;;;;;;;;;;;;;;;2.06;67.34;101976.38;4425228;26;19937;-81
2024/04/22 03:27:55;;;;;;;;;;;;;;;2.06;67.38;101968.38;4376058;27;20001;-83
2024/04/22 03:30:17;;;;;;;;;;;;;;;2.06;67.34;101967.53;4420134;26;20277;-82
2024/04/22 03:32:37;;;;;;;;;;;;;;;2.02;67.55;101976.63;4424930;26;19982;-81
2024/04/22 03:35:07;;;;;;;;;;;;;;;2.00;67.87;101973.22;4425364;26;20342;-82
2024/04/22 03:37:30;;;;;;;;;;;;;;;1.97;68.22;101971.56;4383937;26;20014;-80
2024/04/22 03:39:50;;;;;;;;;;;;;;;1.94;68.44;101977.09;4422541;26;20003;-82
2024/04/22 03:42:12;;;;;;;;;;;;;;;1.90;68.28;101975.56;4418711;26;20293;-83
2024/04/22 03:44:32;;;;;;;;;;;;;;;1.87;68.75;101981.06;4398483;26;19941;-81
2024/04/22 03:49:56;;;;;;;;;;;;;;;1.84;68.77;101967.94;4328122;27;19943;-81
2024/04/22 03:52:22;;;;;;;;;;;;;;;1.83;69.22;101971.53;4399827;26;19937;-82
2024/04/22 03:54:45;;;;;;;;;;;;;;;1.82;69.16;101972.47;4424079;26;19980;-82
2024/04/22 03:57:05;;;;;;;;;;;;;;;1.78;69.72;101971.81;4419437;26;20322;-81
2024/04/22 03:59:27;;;;;;;;;;;;;;;1.77;70.10;101972.75;4392759;26;19937;-81
2024/04/22 04:01:49;;;;;;;;;;;;;;;1.76;70.12;101965.72;4423481;26;19999;-81
2024/04/22 04:04:08;;;;;;;;;;;;;;;1.75;70.32;101970.16;4422505;26;19941;-81
2024/04/22 04:06:31;;;;;;;;;;;;;;;1.76;70.26;101973.72;4424323;26;19937;-80
2024/04/22 04:08:53;;;;;;;;;;;;;;;1.76;70.28;101976.38;4423899;26;20016;-80
2024/04/22 04:11:16;;;;;;;;;;;;;;;1.77;70.13;101970.97;4422153;26;20460;-80
2024/04/22 04:13:36;;;;;;;;;;;;;;;1.75;70.18;101977.31;4397758;26;20009;-82
2024/04/22 04:15:58;;;;;;;;;;;;;;;1.76;69.64;101979.88;4394690;26;20269;-80
2024/04/22 04:18:18;;;;;;;;;;;;;;;1.77;69.73;101978.94;4423397;26;19941;-83
2024/04/22 04:20:42;;;;;;;;;;;;;;;1.79;70.19;101985.03;4398523;26;20006;-82
2024/04/22 04:23:02;;;;;;;;;;;;;;;1.79;70.41;101986.84;4397547;26;19942;-82
2024/04/22 04:25:27;;;;;;;;;;;;;;;1.78;70.21;101987.78;4396762;26;20377;-80
2024/04/22 04:27:48;;;;;;;;;;;;;;;1.82;70.98;101991.13;4421894;26;19999;-82
2024/04/22 04:30:11;;;;;;;;;;;;;;;1.89;72.35;101981.84;4421537;26;20073;-85
2024/04/22 04:32:30;;;;;;;;;;;;;;;1.87;71.91;101984.59;4386481;26;19999;-81
2024/04/22 04:34:54;;;;;;;;;;;;;;;1.88;71.33;101990.75;4420304;26;19962;-84
2024/04/22 04:37:13;;;;;;;;;;;;;;;1.88;71.30;101981.00;4386879;26;19976;-83
2024/04/22 04:39:36;;;;;;;;;;;;;;;1.87;71.45;101983.75;4423755;26;20446;-82
2024/04/22 04:41:58;;;;;;;;;;;;;;;1.88;71.22;101991.66;4386205;26;19938;-82
2024/04/22 04:44:21;;;;;;;;;;;;;;;1.89;71.42;101979.16;4420421;26;19999;-82
2024/04/22 04:46:41;;;;;;;;;;;;;;;1.89;71.45;101985.34;4423638;26;20014;-81
2024/04/22 04:49:03;;;;;;;;;;;;;;;1.91;71.81;101980.81;4396837;26;20018;-81
2024/04/22 04:51:23;;;;;;;;;;;;;;;1.94;71.57;101987.75;4398715;26;20006;-81
2024/04/22 04:53:49;;;;;;;;;;;;;;;1.96;71.68;101972.53;4417639;26;19936;-82
2024/04/22 04:56:09;;;;;;;;;;;;;;;1.99;71.27;101977.66;4398569;26;19995;-81
2024/04/22 04:58:36;;;;;;;;;;;;;;;2.03;70.90;101981.88;4393531;26;20731;-81
2024/04/22 05:00:56;;;;;;;;;;;;;;;2.07;70.99;101986.09;4424254;26;19937;-83
2024/04/22 05:03:21;;;;;;;;;;;;;;;2.10;70.95;101990.34;4379634;26;20002;-82
2024/04/22 05:05:40;;;;;;;;;;;;;;;2.13;70.46;101983.06;4426281;26;19937;-83
2024/04/22 05:08:03;;;;;;;;;;;;;;;2.16;70.36;101982.00;4426064;26;20268;-81
2024/04/22 05:10:23;;;;;;;;;;;;;;;2.21;70.38;101979.06;4400488;26;19940;-80
2024/04/22 05:12:48;;;;;;;;;;;;;;;2.24;70.17;101985.09;4397333;26;20043;-81
2024/04/22 05:15:11;;;;;;;;;;;;;;;2.29;70.14;101983.00;4426510;26;19999;-81
2024/04/22 05:17:34;;;;;;;;;;;;;;;2.34;69.94;101988.88;4427580;26;19937;-80
2024/04/22 05:19:53;;;;;;;;;;;;;;;2.40;69.46;101982.34;4395554;26;20398;-81
2024/04/22 05:22:16;;;;;;;;;;;;;;;2.44;69.14;101989.19;4424001;26;19969;-84
2024/04/22 05:24:36;;;;;;;;;;;;;;;2.46;69.33;101987.31;4420740;26;19984;-82
2024/04/22 05:26:59;;;;;;;;;;;;;;;2.51;68.90;101981.69;4397974;26;19963;-80
2024/04/22 05:29:18;;;;;;;;;;;;;;;2.57;69.00;101980.44;4422730;26;20328;-82
2024/04/22 05:31:43;;;;;;;;;;;;;;;2.61;68.87;101981.97;4425483;26;20008;-81
2024/04/22 05:36:45;;;;;;;;;;;;;;;2.71;67.97;101977.75;4398605;26;20067;-83
2024/04/22 05:39:07;;;;;;;;;;;;;;;2.77;68.33;101972.03;4426599;26;19936;-82
2024/04/22 05:41:30;;;;;;;;;;;;;;;2.82;67.99;101979.75;4426615;26;19937;-82
2024/04/22 05:43:49;;;;;;;;;;;;;;;2.85;67.90;101967.13;4426425;26;19940;-82
2024/04/22 05:46:12;;;;;;;;;;;;;;;2.92;67.57;101977.41;4426250;26;19937;-80
2024/04/22 05:48:37;;;;;;;;;;;;;;;2.96;67.15;101973.56;4404213;26;19937;-82
2024/04/22 05:51:04;;;;;;;;;;;;;;;3.01;66.99;101974.13;4426530;26;19945;-81
2024/04/22 05:53:26;;;;;;;;;;;;;;;3.08;66.79;101971.94;4396723;26;19937;-81
2024/04/22 05:55:49;;;;;;;;;;;;;;;3.12;66.81;101971.66;4425322;26;19937;-81
2024/04/22 05:58:09;;;;;;;;;;;;;;;3.17;66.16;101971.34;4423467;26;19937;-81
2024/04/22 06:00:32;;;;;;;;;;;;;;;3.23;66.09;101978.97;4425959;26;20004;-83
2024/04/22 06:02:51;;;;;;;;;;;;;;;3.27;66.04;101969.78;4399608;26;19937;-80
2024/04/22 06:05:17;;;;;;;;;;;;;;;3.33;65.17;101972.06;4399064;26;20309;-82
2024/04/22 06:07:40;;;;;;;;;;;;;;;3.37;64.97;101978.94;4423059;26;20388;-82
2024/04/22 06:10:02;;;;;;;;;;;;;;;3.43;64.69;101975.84;4373610;26;20001;-82
2024/04/22 14:25:15;;;;;;;;;;;;;;;7.19;62.24;101901.00;4412687;26;19939;-83
2024/04/22 14:27:37;;;;;;;;;;;;;;;7.14;62.80;101897.84;4362768;27;20001;-83
2024/04/22 14:30:05;;;;;;;;;;;;;;;7.07;63.02;101907.38;4366447;27;20124;-83
2024/04/22 14:32:26;;;;;;;;;;;;;;;6.98;62.35;101891.03;4389943;26;20316;-87
2024/04/22 14:35:01;;;;;;;;;;;;;;;6.96;62.37;101881.38;4368151;27;19968;-84
2024/04/22 14:37:29;;;;;;;;;;;;;;;6.90;62.10;101882.75;4368262;27;19938;-85
2024/04/22 14:39:55;;;;;;;;;;;;;;;6.85;62.30;101880.44;4364267;27;21107;-86
2024/04/22 14:45:15;;;;;;;;;;;;;;;;;;;;;
2024/04/22 14:45:50;;;;;;;;;;;;;;;6.80;62.39;101873.72;4249433;27;20422;-84
2024/04/22 14:52:05;;;;;;;;;;;;;;;6.72;62.99;101868.97;4362723;27;19946;-83
2024/04/22 14:54:27;;;;;;;;;;;;;;;6.69;62.96;101866.53;4368223;27;20001;-85
2024/04/22 14:57:08;;;;;;;;;;;;;;;6.64;64.39;101866.06;4335879;27;20327;-86
2024/04/22 14:59:29;;;;;;;;;;;;;;;6.60;64.58;101865.47;4387697;26;19945;-86
2024/04/22 15:01:55;;;;;;;;;;;;;;;6.59;64.54;101870.97;4368851;27;20002;-88
2024/04/22 15:04:17;;;;;;;;;;;;;;;6.58;64.32;101869.25;4359198;27;20285;-87
2024/04/22 15:06:44;;;;;;;;;;;;;;;6.56;64.59;101865.84;4368093;27;20001;-89
2024/04/22 15:09:29;;;;;;;;;;;;;;;6.55;64.63;101869.50;4351591;27;19962;-89
2024/04/22 15:11:52;;;;;;;;;;;;;;;6.54;65.49;101863.28;4390483;26;20001;-90
2024/04/22 15:14:17;;;;;;;;;;;;;;;6.54;65.63;101868.66;4356053;27;20400;-90
2024/04/22 15:16:43;;;;;;;;;;;;;;;6.54;65.29;101868.66;4398889;26;19937;-88
2024/04/22 15:19:06;;;;;;;;;;;;;;;6.54;65.35;101865.13;4393633;27;20001;-85
2024/04/22 15:21:32;;;;;;;;;;;;;;;6.53;65.43;101856.19;4371675;26;20416;-87
2024/04/22 15:33:54;;;;;;;;;;;;;;;6.57;64.17;101851.44;4282466;27;19940;-84
2024/04/22 15:36:38;;;;;;;;;;;;;;;6.56;64.51;101853.25;4261798;27;19939;-83
2024/04/22 15:42:33;;;;;;;;;;;;;;;6.60;64.10;101845.81;4207496;28;19941;-81
2024/04/22 15:44:56;;;;;;;;;;;;;;;6.61;64.31;101847.53;4278901;27;20996;-85
2024/04/22 15:47:38;;;;;;;;;;;;;;;6.60;64.10;101840.44;4279612;27;20033;-85
2024/04/22 15:50:10;;;;;;;;;;;;;;;6.61;64.08;101843.00;4289445;26;19939;-86
2024/04/22 15:52:48;;;;;;;;;;;;;;;6.62;63.51;101846.56;4393685;26;19937;-87
2024/04/22 15:55:27;;;;;;;;;;;;;;;6.63;63.34;101848.25;4390321;27;19981;-87
2024/04/22 15:57:59;;;;;;;;;;;;;;;6.63;63.32;101849.13;4412475;26;19936;-88
2024/04/22 16:00:33;;;;;;;;;;;;;;;6.63;63.41;101846.44;4421452;26;20024;-83
2024/04/22 16:02:58;;;;;;;;;;;;;;;6.63;63.98;101854.50;4398114;26;19942;-86
2024/04/22 16:05:24;;;;;;;;;;;;;;;6.64;63.90;101841.91;4389380;27;20152;-86
2024/04/22 16:07:47;;;;;;;;;;;;;;;6.65;63.66;101847.16;4417944;26;19988;-86
2024/04/22 16:10:11;;;;;;;;;;;;;;;6.67;63.82;101838.97;4386448;27;19938;-86
2024/04/22 16:12:44;;;;;;;;;;;;;;;6.69;64.25;101842.38;4395172;27;20000;-83
2024/04/22 16:15:12;;;;;;;;;;;;;;;6.70;64.20;101836.03;4397973;26;19938;-83
2024/04/22 16:17:45;;;;;;;;;;;;;;;6.68;64.48;101833.47;4372648;27;20025;-88
2024/04/22 16:20:08;;;;;;;;;;;;;;;6.70;64.40;101835.19;4391827;26;20023;-84
2024/04/22 16:25:29;;;;;;;;;;;;;;;6.68;64.35;101828.13;4394249;27;20277;-84
2024/04/22 16:28:11;;;;;;;;;;;;;;;;;;;;;
2024/04/22 16:30:42;;;;;;;;;;;;;;;6.69;63.51;101823.59;4398213;26;20313;-85
2024/04/22 16:33:04;;;;;;;;;;;;;;;6.70;63.17;101822.63;4394506;26;19941;-85
2024/04/22 16:35:36;;;;;;;;;;;;;;;6.70;63.10;101819.94;4397649;26;19936;-83
2024/04/22 16:38:03;;;;;;;;;;;;;;;6.71;63.17;101815.41;4400247;26;19938;-85
2024/04/22 16:40:40;;;;;;;;;;;;;;;6.70;63.26;101822.63;4393937;26;20388;-85
2024/04/22 16:43:01;;;;;;;;;;;;;;;6.72;62.99;101822.50;4421379;26;19996;-83
2024/04/22 16:45:24;;;;;;;;;;;;;;;6.73;62.39;101822.38;4391894;26;19967;-84
2024/04/22 16:47:47;;;;;;;;;;;;;;;6.74;62.62;101817.84;4417629;26;19937;-86
2024/04/22 16:50:10;;;;;;;;;;;;;;;6.74;61.73;101815.16;4420423;26;19937;-84
2024/04/22 16:56:11;;;;;;;;;;;;;;;6.77;62.04;101809.53;4402050;26;19979;-84
2024/04/22 16:58:53;;;;;;;;;;;;;;;;;;;;;
2024/04/22 17:01:33;;;;;;;;;;;;;;;6.77;61.29;101810.41;4426934;26;20000;-86
2024/04/22 17:07:57;;;;;;;;;;;;;;;6.75;61.00;101817.72;4287825;27;20004;-86
2024/04/22 17:11:08;;;;;;;;;;;;;;;6.74;60.92;101820.53;4274583;27;19943;-86
2024/04/22 17:14:02;;;;;;;;;;;;;;;6.72;60.68;101817.97;4422097;26;19970;-87
2024/04/22 17:16:43;;;;;;;;;;;;;;;6.71;61.23;101826.16;4402683;26;20583;-86
2024/04/22 17:19:19;;;;;;;;;;;;;;;6.67;60.92;101818.34;4426815;26;19937;-87
2024/04/22 17:21:46;;;;;;;;;;;;;;;6.64;60.73;101817.75;4401431;26;19938;-87
2024/04/22 17:24:22;;;;;;;;;;;;;;;6.61;60.78;101815.31;4401094;26;19985;-87
2024/04/22 17:26:51;;;;;;;;;;;;;;;6.58;60.97;101818.25;4396111;26;20000;-86
2024/04/22 17:29:34;;;;;;;;;;;;;;;6.55;61.46;101818.50;4395210;26;20424;-87
2024/04/22 17:32:27;;;;;;;;;;;;;;;6.52;61.27;101835.72;4391995;26;19955;-88
2024/04/22 17:34:50;;;;;;;;;;;;;;;6.47;60.98;101822.66;4422228;26;19962;-88
2024/04/22 17:37:17;;;;;;;;;;;;;;;6.44;61.18;101827.41;4399651;26;20324;-88
2024/04/22 17:39:45;;;;;;;;;;;;;;;6.41;61.36;101820.47;4399721;26;19939;-88
2024/04/22 17:42:23;;;;;;;;;;;;;;;6.39;61.31;101826.94;4365439;27;20379;-85
2024/04/22 17:44:50;;;;;;;;;;;;;;;6.37;62.02;101827.06;4420610;26;20339;-88
2024/04/22 17:47:10;;;;;;;;;;;;;;;6.35;62.26;101820.09;4399603;27;19941;-90
2024/04/22 17:49:44;;;;;;;;;;;;;;;6.32;62.27;101829.25;4398380;27;20120;-86
2024/04/22 17:52:20;;;;;;;;;;;;;;;6.30;61.81;101834.75;4397545;27;19938;-85
2024/04/22 17:54:54;;;;;;;;;;;;;;;6.31;63.07;101828.38;4397052;27;20000;-83
2024/04/22 17:57:14;;;;;;;;;;;;;;;6.33;63.64;101830.94;4397586;27;19975;-86
2024/04/22 17:59:43;;;;;;;;;;;;;;;6.34;63.92;101845.25;4399980;26;19982;-84
2024/04/22 18:02:14;;;;;;;;;;;;;;;6.34;64.34;101835.34;4410118;26;19980;-83
2024/04/22 18:04:37;;;;;;;;;;;;;;;6.31;64.76;101833.75;4399559;27;19937;-82
2024/04/22 18:07:00;;;;;;;;;;;;;;;6.31;64.91;101840.97;4400182;26;19937;-84
2024/04/22 18:09:27;;;;;;;;;;;;;;;6.30;64.51;101833.88;4395339;27;19938;-83
2024/04/22 18:11:47;;;;;;;;;;;;;;;6.30;64.94;101836.56;4397189;26;19945;-81
2024/04/22 18:14:10;;;;;;;;;;;;;;;6.28;64.88;101834.00;4395940;27;19997;-83
2024/04/22 18:16:32;;;;;;;;;;;;;;;6.27;65.05;101843.03;4394170;27;20389;-83
2024/04/22 18:18:56;;;;;;;;;;;;;;;6.28;65.50;101838.53;4396215;27;19937;-84
2024/04/22 18:21:21;;;;;;;;;;;;;;;6.27;65.36;101848.41;4420179;26;20024;-86
2024/04/22 18:23:58;;;;;;;;;;;;;;;6.27;65.29;101847.53;4397093;27;20272;-85
2024/04/22 18:26:47;;;;;;;;;;;;;;;6.27;64.61;101845.72;4370912;27;19977;-88
2024/04/22 18:29:14;;;;;;;;;;;;;;;6.26;64.88;101852.06;4416929;26;19938;-88
2024/04/22 18:31:36;;;;;;;;;;;;;;;6.25;65.55;101850.38;4390966;26;20000;-86
2024/04/22 18:34:04;;;;;;;;;;;;;;;6.24;65.50;101858.53;4391470;27;20005;-84
2024/04/22 18:36:33;;;;;;;;;;;;;;;6.23;65.76;101860.34;4392725;27;19996;-85
2024/04/22 18:39:23;;;;;;;;;;;;;;;6.23;65.46;101865.72;4388239;27;20329;-86
2024/04/22 18:42:08;;;;;;;;;;;;;;;6.21;64.99;101850.72;4395684;27;19938;-84
2024/04/22 18:44:32;;;;;;;;;;;;;;;6.21;65.81;101856.09;4391837;27;20004;-90
2024/04/22 18:46:53;;;;;;;;;;;;;;;6.19;66.30;101856.22;4370962;27;19938;-88
2024/04/22 18:49:23;;;;;;;;;;;;;;;6.19;66.18;101853.53;4377291;27;19942;-86
2024/04/22 18:51:43;;;;;;;;;;;;;;;6.19;65.98;101858.03;4396387;27;20379;-87
2024/04/22 18:54:13;;;;;;;;;;;;;;;6.18;65.89;101859.03;4419354;26;19936;-87
2024/04/22 18:56:36;;;;;;;;;;;;;;;6.17;66.53;101855.47;4395262;26;19950;-89
2024/04/22 18:58:59;;;;;;;;;;;;;;;6.15;66.69;101849.38;4421060;26;19975;-92
2024/04/22 19:01:19;;;;;;;;;;;;;;;6.14;66.75;101858.38;4396360;26;19938;-87
2024/04/22 19:03:46;;;;;;;;;;;;;;;6.12;66.74;101853.13;4356926;27;19979;-89
2024/04/22 19:06:11;;;;;;;;;;;;;;;6.10;67.08;101849.72;4391411;27;20642;-88
2024/04/22 19:08:36;;;;;;;;;;;;;;;6.09;67.08;101847.16;4396822;27;20496;-86
2024/04/22 19:11:06;;;;;;;;;;;;;;;6.07;67.50;101847.28;4368510;27;19938;-83
2024/04/22 19:13:29;;;;;;;;;;;;;;;6.05;67.69;101845.69;4382901;27;19937;-83
2024/04/22 19:15:52;;;;;;;;;;;;;;;6.04;67.80;101850.22;4395980;27;19997;-84
2024/04/22 19:18:15;;;;;;;;;;;;;;;6.04;67.45;101846.69;4394482;27;20005;-84
2024/04/22 19:20:35;;;;;;;;;;;;;;;6.02;67.61;101852.16;4418819;26;19999;-86
2024/04/22 19:22:57;;;;;;;;;;;;;;;6.03;68.79;101839.59;4394841;27;19938;-85
2024/04/22 19:25:17;;;;;;;;;;;;;;;6.01;68.98;101837.03;4385970;27;19941;-85
2024/04/22 19:27:55;;;;;;;;;;;;;;;6.01;69.14;101830.84;4392635;26;19942;-87
2024/04/22 19:30:29;;;;;;;;;;;;;;;5.98;69.33;101836.44;4583462;25;20016;-68
2024/04/22 19:32:29;;;;;;;;;;;;;;;5.96;69.41;101839.22;4566956;25;19934;-66
2024/04/22 19:34:34;;;;;;;;;;;;;;;5.93;69.41;101837.59;4570351;25;19928;-68
2024/04/22 19:36:35;;;;;;;;;;;;;;;5.92;69.52;101841.28;4571386;25;19935;-66
2024/04/22 19:38:38;;;;;;;;;;;;;;;5.91;69.97;101838.72;4572054;25;20334;-68
2024/04/22 19:40:39;;;;;;;;;;;;;;;5.90;70.14;101845.88;4568303;25;19927;-68
2024/04/22 19:42:43;;;;;;;;;;;;;;;5.88;70.07;101845.16;4568631;25;20289;-67
2024/04/22 19:44:44;;;;;;;;;;;;;;;5.88;70.41;101852.38;4532847;26;19964;-68
2024/04/22 19:46:55;;;;;;;;;;;;;;;5.87;71.31;101850.66;4565229;25;19996;-68
2024/04/22 19:48:56;;;;;;;;;;;;;;;5.86;71.77;101849.81;4561680;25;20654;-67
2024/04/22 19:50:59;;;;;;;;;;;;;;;5.85;71.71;101856.13;4560834;25;20716;-68
2024/04/22 19:53:00;;;;;;;;;;;;;;;5.83;72.04;101847.34;4562488;25;20269;-68
2024/04/22 19:55:04;;;;;;;;;;;;;;;5.82;72.39;101845.63;4564267;25;20311;-67
2024/04/22 19:57:05;;;;;;;;;;;;;;;5.81;72.52;101841.25;4557450;25;19927;-69
2024/04/22 19:59:09;;;;;;;;;;;;;;;5.80;72.26;101842.22;4560206;25;19927;-69
2024/04/22 20:01:10;;;;;;;;;;;;;;;5.77;72.34;101846.00;4564501;25;19935;-68
2024/04/22 20:03:16;;;;;;;;;;;;;;;5.74;72.96;101838.19;4563522;25;20288;-68
2024/04/22 20:05:17;;;;;;;;;;;;;;;5.72;72.62;101841.94;4563270;25;19935;-67
2024/04/22 20:07:21;;;;;;;;;;;;;;;5.68;73.10;101846.69;4565016;25;19999;-66
2024/04/22 20:09:22;;;;;;;;;;;;;;;5.63;72.86;101840.84;4562611;25;19928;-68
2024/04/22 20:11:26;;;;;;;;;;;;;;;5.62;73.02;101838.28;4563213;25;20293;-67
2024/04/22 20:13:27;;;;;;;;;;;;;;;5.58;73.49;101838.53;4562777;25;19928;-68
2024/04/22 20:15:40;;;;;;;;;;;;;;;5.54;73.46;101842.41;4564076;25;19927;-68
2024/04/22 20:18:01;;;;;;;;;;;;;;;5.51;73.30;101839.09;4566029;25;20705;-68
2024/04/22 20:20:08;;;;;;;;;;;;;;;5.47;73.79;101838.50;4564396;25;20350;-70
2024/04/22 20:22:09;;;;;;;;;;;;;;;5.44;73.92;101848.56;4565073;25;19932;-70
2024/04/22 20:24:13;;;;;;;;;;;;;;;5.41;73.84;101847.00;4564004;25;19935;-68
2024/04/22 20:26:14;;;;;;;;;;;;;;;5.35;74.43;101840.25;4565914;25;19928;-68
2024/04/22 20:28:17;;;;;;;;;;;;;;;5.30;74.21;101845.13;4564232;25;20445;-67
2024/04/22 20:30:20;;;;;;;;;;;;;;;5.26;74.81;101846.31;4562693;25;20289;-67
2024/04/22 20:32:24;;;;;;;;;;;;;;;5.24;74.59;101850.94;4561290;25;19931;-68
2024/04/22 20:34:25;;;;;;;;;;;;;;;5.18;74.46;101846.88;4568673;25;19928;-68
2024/04/22 20:36:31;;;;;;;;;;;;;;;5.15;74.81;101847.09;4568539;25;20382;-66
2024/04/22 20:38:32;;;;;;;;;;;;;;;5.13;74.97;101856.25;4567306;25;19932;-67
2024/04/22 20:40:35;;;;;;;;;;;;;;;5.12;75.23;101844.66;4561203;25;19927;-67
2024/04/22 20:42:36;;;;;;;;;;;;;;;5.11;75.08;101848.31;4555467;26;19935;-68
2024/04/22 20:44:41;;;;;;;;;;;;;;;5.12;74.70;101849.16;4556253;25;19927;-68
2024/04/22 20:46:42;;;;;;;;;;;;;;;5.10;75.38;101841.25;4546672;26;20349;-67
2024/04/22 20:48:46;;;;;;;;;;;;;;;5.09;75.05;101844.03;4554593;26;19927;-67
2024/04/22 20:50:47;;;;;;;;;;;;;;;5.05;74.78;101844.28;4554511;25;19927;-67
2024/04/22 20:52:53;;;;;;;;;;;;;;;5.02;74.89;101847.19;4554544;26;20384;-67
2024/04/22 20:54:54;;;;;;;;;;;;;;;4.98;75.16;101845.69;4555088;26;19943;-67
2024/04/22 20:56:58;;;;;;;;;;;;;;;4.94;75.60;101843.38;4554656;26;20013;-68
2024/04/22 20:58:59;;;;;;;;;;;;;;;4.91;75.54;101839.09;4556964;25;19936;-67
2024/04/22 21:01:00;;;;;;;;;;;;;;;4.88;75.79;101842.84;4558107;26;19927;-68
2024/04/22 21:03:05;;;;;;;;;;;;;;;4.87;75.54;101849.19;4555081;26;19940;-67
2024/04/22 21:05:07;;;;;;;;;;;;;;;4.86;76.01;101842.09;4553033;26;19944;-67
2024/04/22 21:07:11;;;;;;;;;;;;;;;4.86;76.19;101846.59;4551863;26;19927;-68
2024/04/22 21:09:14;;;;;;;;;;;;;;;4.83;76.45;101844.16;4552094;25;19987;-67